sensor_id;sensor_type;location;lat;lon;timestamp;P1;durP1;ratioP1;P2;durP2;ratioP2
62687;SDS011;48752;51.056;17.056;2023-05-31T00:00:58;5.60;;;3.13;;
62687;SDS011;48752;51.056;17.056;2023-05-31T00:03:24;8.18;;;3.60;;
62687;SDS011;48752;51.056;17.056;2023-05-31T00:06:15;9.70;;;3.83;;
62687;SDS011;48752;51.056;17.056;2023-05-31T00:11:37;7.80;;;3.67;;
62687;SDS011;48752;51.056;17.056;2023-05-31T00:14:03;15.55;;;3.80;;
62687;SDS011;48752;51.056;17.056;2023-05-31T00:16:29;11.93;;;4.00;;
62687;SDS011;48752;51.056;17.056;2023-05-31T00:18:55;9.82;;;3.38;;
62687;SDS011;48752;51.056;17.056;2023-05-31T00:21:23;7.40;;;3.45;;
62687;SDS011;48752;51.056;17.056;2023-05-31T00:23:48;8.07;;;3.42;;
62687;SDS011;48752;51.056;17.056;2023-05-31T00:26:14;12.45;;;4.25;;
62687;SDS011;48752;51.056;17.056;2023-05-31T00:28:40;13.80;;;4.68;;
62687;SDS011;48752;51.056;17.056;2023-05-31T00:31:06;14.15;;;4.85;;
62687;SDS011;48752;51.056;17.056;2023-05-31T00:33:33;7.20;;;3.60;;
62687;SDS011;48752;51.056;17.056;2023-05-31T00:35:59;10.40;;;4.00;;
62687;SDS011;48752;51.056;17.056;2023-05-31T00:38:25;11.18;;;3.60;;
62687;SDS011;48752;51.056;17.056;2023-05-31T00:40:50;9.88;;;3.40;;
62687;SDS011;48752;51.056;17.056;2023-05-31T00:43:17;12.82;;;3.83;;
62687;SDS011;48752;51.056;17.056;2023-05-31T00:45:43;8.77;;;3.88;;
62687;SDS011;48752;51.056;17.056;2023-05-31T00:48:09;10.65;;;4.18;;
62687;SDS011;48752;51.056;17.056;2023-05-31T00:50:35;10.73;;;3.92;;
62687;SDS011;48752;51.056;17.056;2023-05-31T00:53:02;11.88;;;4.68;;
62687;SDS011;48752;51.056;17.056;2023-05-31T00:55:30;8.50;;;4.10;;
62687;SDS011;48752;51.056;17.056;2023-05-31T00:57:57;12.88;;;4.15;;
62687;SDS011;48752;51.056;17.056;2023-05-31T01:00:31;12.07;;;4.40;;
62687;SDS011;48752;51.056;17.056;2023-05-31T01:03:04;8.52;;;4.00;;
62687;SDS011;48752;51.056;17.056;2023-05-31T01:05:32;5.65;;;3.90;;
62687;SDS011;48752;51.056;17.056;2023-05-31T01:07:57;11.10;;;3.85;;
62687;SDS011;48752;51.056;17.056;2023-05-31T01:10:23;14.40;;;3.78;;
62687;SDS011;48752;51.056;17.056;2023-05-31T01:13:23;13.60;;;4.22;;
62687;SDS011;48752;51.056;17.056;2023-05-31T01:15:45;11.13;;;3.58;;
62687;SDS011;48752;51.056;17.056;2023-05-31T01:20:43;7.50;;;3.33;;
62687;SDS011;48752;51.056;17.056;2023-05-31T01:28:35;6.82;;;3.67;;
62687;SDS011;48752;51.056;17.056;2023-05-31T01:31:04;7.97;;;3.40;;
62687;SDS011;48752;51.056;17.056;2023-05-31T01:33:32;5.90;;;3.42;;
62687;SDS011;48752;51.056;17.056;2023-05-31T01:35:59;8.90;;;3.60;;
62687;SDS011;48752;51.056;17.056;2023-05-31T01:38:25;10.88;;;3.95;;
62687;SDS011;48752;51.056;17.056;2023-05-31T01:40:53;10.25;;;5.18;;
62687;SDS011;48752;51.056;17.056;2023-05-31T01:43:21;7.22;;;3.72;;
62687;SDS011;48752;51.056;17.056;2023-05-31T01:48:34;7.07;;;3.85;;
62687;SDS011;48752;51.056;17.056;2023-05-31T01:51:05;9.38;;;3.60;;
62687;SDS011;48752;51.056;17.056;2023-05-31T01:53:37;10.15;;;3.85;;
62687;SDS011;48752;51.056;17.056;2023-05-31T01:56:02;9.02;;;4.32;;
62687;SDS011;48752;51.056;17.056;2023-05-31T01:58:32;5.35;;;3.40;;
62687;SDS011;48752;51.056;17.056;2023-05-31T02:00:58;10.55;;;4.20;;
62687;SDS011;48752;51.056;17.056;2023-05-31T02:03:43;6.82;;;4.30;;
62687;SDS011;48752;51.056;17.056;2023-05-31T02:06:12;11.70;;;4.38;;
62687;SDS011;48752;51.056;17.056;2023-05-31T02:08:39;10.80;;;4.10;;
62687;SDS011;48752;51.056;17.056;2023-05-31T02:11:08;9.18;;;3.85;;
62687;SDS011;48752;51.056;17.056;2023-05-31T02:13:35;11.27;;;3.65;;
62687;SDS011;48752;51.056;17.056;2023-05-31T02:16:01;11.05;;;3.10;;
62687;SDS011;48752;51.056;17.056;2023-05-31T02:18:28;7.95;;;4.07;;
62687;SDS011;48752;51.056;17.056;2023-05-31T02:20:55;7.47;;;4.07;;
62687;SDS011;48752;51.056;17.056;2023-05-31T02:23:21;11.20;;;4.13;;
62687;SDS011;48752;51.056;17.056;2023-05-31T02:25:48;10.88;;;3.97;;
62687;SDS011;48752;51.056;17.056;2023-05-31T02:28:15;9.93;;;3.60;;
62687;SDS011;48752;51.056;17.056;2023-05-31T02:30:59;7.60;;;3.75;;
62687;SDS011;48752;51.056;17.056;2023-05-31T02:33:25;13.07;;;4.13;;
62687;SDS011;48752;51.056;17.056;2023-05-31T02:35:51;13.88;;;5.32;;
62687;SDS011;48752;51.056;17.056;2023-05-31T02:38:18;8.82;;;4.43;;
62687;SDS011;48752;51.056;17.056;2023-05-31T02:40:45;10.00;;;3.50;;
62687;SDS011;48752;51.056;17.056;2023-05-31T02:43:11;7.85;;;3.83;;
62687;SDS011;48752;51.056;17.056;2023-05-31T02:45:37;9.65;;;3.47;;
62687;SDS011;48752;51.056;17.056;2023-05-31T02:48:04;14.00;;;4.05;;
62687;SDS011;48752;51.056;17.056;2023-05-31T02:50:30;11.68;;;4.65;;
62687;SDS011;48752;51.056;17.056;2023-05-31T02:52:56;7.85;;;3.50;;
62687;SDS011;48752;51.056;17.056;2023-05-31T02:55:22;8.30;;;3.83;;
62687;SDS011;48752;51.056;17.056;2023-05-31T02:57:48;8.73;;;3.97;;
62687;SDS011;48752;51.056;17.056;2023-05-31T03:00:16;6.82;;;3.47;;
62687;SDS011;48752;51.056;17.056;2023-05-31T03:02:43;11.90;;;3.70;;
62687;SDS011;48752;51.056;17.056;2023-05-31T03:05:10;8.25;;;3.60;;
62687;SDS011;48752;51.056;17.056;2023-05-31T03:07:39;9.98;;;4.63;;
62687;SDS011;48752;51.056;17.056;2023-05-31T03:10:06;7.55;;;3.85;;
62687;SDS011;48752;51.056;17.056;2023-05-31T03:12:33;8.65;;;3.97;;
62687;SDS011;48752;51.056;17.056;2023-05-31T03:15:00;10.40;;;4.63;;
62687;SDS011;48752;51.056;17.056;2023-05-31T03:17:26;7.15;;;4.00;;
62687;SDS011;48752;51.056;17.056;2023-05-31T03:19:53;10.95;;;3.80;;
62687;SDS011;48752;51.056;17.056;2023-05-31T03:22:19;6.93;;;3.47;;
62687;SDS011;48752;51.056;17.056;2023-05-31T03:24:46;11.15;;;4.35;;
62687;SDS011;48752;51.056;17.056;2023-05-31T03:27:13;6.90;;;3.92;;
62687;SDS011;48752;51.056;17.056;2023-05-31T03:29:41;12.00;;;4.80;;
62687;SDS011;48752;51.056;17.056;2023-05-31T03:32:20;9.00;;;3.97;;
62687;SDS011;48752;51.056;17.056;2023-05-31T03:34:46;8.05;;;4.10;;
62687;SDS011;48752;51.056;17.056;2023-05-31T03:37:12;9.77;;;4.97;;
62687;SDS011;48752;51.056;17.056;2023-05-31T03:39:39;12.43;;;4.00;;
62687;SDS011;48752;51.056;17.056;2023-05-31T03:42:06;8.32;;;3.95;;
62687;SDS011;48752;51.056;17.056;2023-05-31T03:44:47;9.32;;;3.72;;
62687;SDS011;48752;51.056;17.056;2023-05-31T03:47:13;10.45;;;4.50;;
62687;SDS011;48752;51.056;17.056;2023-05-31T03:49:40;7.30;;;3.97;;
62687;SDS011;48752;51.056;17.056;2023-05-31T03:52:06;6.95;;;4.63;;
62687;SDS011;48752;51.056;17.056;2023-05-31T03:54:36;9.43;;;4.95;;
62687;SDS011;48752;51.056;17.056;2023-05-31T03:57:02;13.27;;;5.10;;
62687;SDS011;48752;51.056;17.056;2023-05-31T03:59:29;19.27;;;5.05;;
62687;SDS011;48752;51.056;17.056;2023-05-31T04:01:54;10.15;;;5.13;;
62687;SDS011;48752;51.056;17.056;2023-05-31T04:04:21;11.30;;;5.13;;
62687;SDS011;48752;51.056;17.056;2023-05-31T04:06:54;8.27;;;5.05;;
62687;SDS011;48752;51.056;17.056;2023-05-31T04:09:21;10.10;;;5.00;;
62687;SDS011;48752;51.056;17.056;2023-05-31T04:11:48;9.98;;;4.82;;
62687;SDS011;48752;51.056;17.056;2023-05-31T04:14:15;11.45;;;5.13;;
62687;SDS011;48752;51.056;17.056;2023-05-31T04:16:41;8.15;;;4.93;;
62687;SDS011;48752;51.056;17.056;2023-05-31T04:19:06;14.80;;;5.22;;
62687;SDS011;48752;51.056;17.056;2023-05-31T04:21:33;14.75;;;5.22;;
62687;SDS011;48752;51.056;17.056;2023-05-31T04:23:59;13.75;;;4.93;;
62687;SDS011;48752;51.056;17.056;2023-05-31T04:26:24;9.07;;;4.72;;
62687;SDS011;48752;51.056;17.056;2023-05-31T04:28:50;12.85;;;5.20;;
62687;SDS011;48752;51.056;17.056;2023-05-31T04:31:18;13.02;;;5.30;;
62687;SDS011;48752;51.056;17.056;2023-05-31T04:33:45;14.88;;;5.32;;
62687;SDS011;48752;51.056;17.056;2023-05-31T04:36:11;11.30;;;5.57;;
62687;SDS011;48752;51.056;17.056;2023-05-31T04:38:38;10.15;;;4.82;;
62687;SDS011;48752;51.056;17.056;2023-05-31T04:41:05;15.30;;;5.22;;
62687;SDS011;48752;51.056;17.056;2023-05-31T04:43:32;12.35;;;5.22;;
62687;SDS011;48752;51.056;17.056;2023-05-31T04:45:58;13.10;;;5.35;;
62687;SDS011;48752;51.056;17.056;2023-05-31T04:48:26;14.57;;;5.13;;
62687;SDS011;48752;51.056;17.056;2023-05-31T04:50:55;11.73;;;5.47;;
62687;SDS011;48752;51.056;17.056;2023-05-31T04:53:21;12.50;;;5.45;;
62687;SDS011;48752;51.056;17.056;2023-05-31T04:55:50;10.73;;;5.20;;
62687;SDS011;48752;51.056;17.056;2023-05-31T04:58:18;11.65;;;5.35;;
62687;SDS011;48752;51.056;17.056;2023-05-31T05:00:45;11.88;;;5.22;;
62687;SDS011;48752;51.056;17.056;2023-05-31T05:05:50;10.73;;;5.82;;
62687;SDS011;48752;51.056;17.056;2023-05-31T05:08:16;10.73;;;4.40;;
62687;SDS011;48752;51.056;17.056;2023-05-31T05:10:44;11.75;;;4.90;;
62687;SDS011;48752;51.056;17.056;2023-05-31T05:13:10;11.25;;;4.10;;
62687;SDS011;48752;51.056;17.056;2023-05-31T05:15:35;11.90;;;4.43;;
62687;SDS011;48752;51.056;17.056;2023-05-31T05:18:00;8.98;;;4.43;;
62687;SDS011;48752;51.056;17.056;2023-05-31T05:23:18;7.10;;;3.67;;
62687;SDS011;48752;51.056;17.056;2023-05-31T05:25:44;10.07;;;4.68;;
62687;SDS011;48752;51.056;17.056;2023-05-31T05:28:11;9.85;;;4.18;;
62687;SDS011;48752;51.056;17.056;2023-05-31T05:30:43;6.45;;;4.18;;
62687;SDS011;48752;51.056;17.056;2023-05-31T05:33:11;11.30;;;4.95;;
62687;SDS011;48752;51.056;17.056;2023-05-31T05:35:36;11.00;;;4.35;;
62687;SDS011;48752;51.056;17.056;2023-05-31T05:38:02;10.00;;;4.68;;
62687;SDS011;48752;51.056;17.056;2023-05-31T05:40:29;6.90;;;3.95;;
62687;SDS011;48752;51.056;17.056;2023-05-31T05:42:54;8.57;;;3.67;;
62687;SDS011;48752;51.056;17.056;2023-05-31T05:45:19;11.45;;;4.07;;
62687;SDS011;48752;51.056;17.056;2023-05-31T05:47:45;7.88;;;4.15;;
62687;SDS011;48752;51.056;17.056;2023-05-31T05:52:57;12.32;;;3.47;;
62687;SDS011;48752;51.056;17.056;2023-05-31T05:55:22;8.63;;;3.90;;
62687;SDS011;48752;51.056;17.056;2023-05-31T05:57:48;6.07;;;3.17;;
62687;SDS011;48752;51.056;17.056;2023-05-31T06:00:14;8.15;;;3.50;;
62687;SDS011;48752;51.056;17.056;2023-05-31T06:02:41;10.60;;;3.83;;
62687;SDS011;48752;51.056;17.056;2023-05-31T06:05:09;7.90;;;3.45;;
62687;SDS011;48752;51.056;17.056;2023-05-31T06:07:40;9.38;;;3.95;;
62687;SDS011;48752;51.056;17.056;2023-05-31T06:10:15;9.57;;;3.30;;
62687;SDS011;48752;51.056;17.056;2023-05-31T06:12:40;8.25;;;3.17;;
62687;SDS011;48752;51.056;17.056;2023-05-31T06:15:07;17.00;;;4.10;;
62687;SDS011;48752;51.056;17.056;2023-05-31T06:17:33;12.00;;;3.70;;
62687;SDS011;48752;51.056;17.056;2023-05-31T06:19:59;9.10;;;3.65;;
62687;SDS011;48752;51.056;17.056;2023-05-31T06:22:24;9.13;;;3.20;;
62687;SDS011;48752;51.056;17.056;2023-05-31T06:24:50;7.83;;;3.00;;
62687;SDS011;48752;51.056;17.056;2023-05-31T06:27:16;6.78;;;3.28;;
62687;SDS011;48752;51.056;17.056;2023-05-31T06:29:43;6.95;;;2.92;;
62687;SDS011;48752;51.056;17.056;2023-05-31T06:32:08;10.53;;;3.47;;
62687;SDS011;48752;51.056;17.056;2023-05-31T06:34:34;10.07;;;3.00;;
62687;SDS011;48752;51.056;17.056;2023-05-31T06:37:00;5.28;;;3.05;;
62687;SDS011;48752;51.056;17.056;2023-05-31T06:39:40;9.38;;;2.75;;
62687;SDS011;48752;51.056;17.056;2023-05-31T06:42:05;9.38;;;2.92;;
62687;SDS011;48752;51.056;17.056;2023-05-31T06:44:32;6.68;;;3.47;;
62687;SDS011;48752;51.056;17.056;2023-05-31T06:46:57;6.23;;;2.70;;
62687;SDS011;48752;51.056;17.056;2023-05-31T06:49:23;6.93;;;2.73;;
62687;SDS011;48752;51.056;17.056;2023-05-31T06:51:51;8.30;;;3.05;;
62687;SDS011;48752;51.056;17.056;2023-05-31T06:54:16;6.03;;;2.85;;
62687;SDS011;48752;51.056;17.056;2023-05-31T06:56:42;7.07;;;2.70;;
62687;SDS011;48752;51.056;17.056;2023-05-31T06:59:09;6.40;;;2.65;;
62687;SDS011;48752;51.056;17.056;2023-05-31T07:01:39;6.65;;;3.45;;
62687;SDS011;48752;51.056;17.056;2023-05-31T07:04:06;5.38;;;2.83;;
62687;SDS011;48752;51.056;17.056;2023-05-31T07:06:31;6.47;;;2.50;;
62687;SDS011;48752;51.056;17.056;2023-05-31T07:09:00;7.32;;;2.60;;
62687;SDS011;48752;51.056;17.056;2023-05-31T07:11:26;4.43;;;2.70;;
62687;SDS011;48752;51.056;17.056;2023-05-31T07:13:53;3.47;;;2.58;;
62687;SDS011;48752;51.056;17.056;2023-05-31T07:16:24;5.63;;;2.35;;
62687;SDS011;48752;51.056;17.056;2023-05-31T07:18:49;6.05;;;2.45;;
62687;SDS011;48752;51.056;17.056;2023-05-31T07:21:16;6.67;;;3.30;;
62687;SDS011;48752;51.056;17.056;2023-05-31T07:23:41;3.80;;;2.40;;
62687;SDS011;48752;51.056;17.056;2023-05-31T07:26:08;7.55;;;3.30;;
62687;SDS011;48752;51.056;17.056;2023-05-31T07:28:33;7.65;;;2.47;;
62687;SDS011;48752;51.056;17.056;2023-05-31T07:31:00;6.18;;;3.00;;
62687;SDS011;48752;51.056;17.056;2023-05-31T07:33:26;9.88;;;2.70;;
62687;SDS011;48752;51.056;17.056;2023-05-31T07:35:51;6.77;;;2.80;;
62687;SDS011;48752;51.056;17.056;2023-05-31T07:38:17;8.00;;;2.30;;
62687;SDS011;48752;51.056;17.056;2023-05-31T07:40:42;6.78;;;2.50;;
62687;SDS011;48752;51.056;17.056;2023-05-31T07:43:10;5.85;;;2.60;;
62687;SDS011;48752;51.056;17.056;2023-05-31T07:45:38;5.43;;;2.47;;
62687;SDS011;48752;51.056;17.056;2023-05-31T07:48:06;3.97;;;1.90;;
62687;SDS011;48752;51.056;17.056;2023-05-31T07:50:31;4.30;;;2.40;;
62687;SDS011;48752;51.056;17.056;2023-05-31T07:52:56;3.43;;;2.00;;
62687;SDS011;48752;51.056;17.056;2023-05-31T07:55:23;4.13;;;1.83;;
62687;SDS011;48752;51.056;17.056;2023-05-31T07:57:50;4.00;;;2.08;;
62687;SDS011;48752;51.056;17.056;2023-05-31T08:00:17;5.70;;;1.75;;
62687;SDS011;48752;51.056;17.056;2023-05-31T08:02:43;5.47;;;2.22;;
62687;SDS011;48752;51.056;17.056;2023-05-31T08:05:09;5.13;;;1.75;;
62687;SDS011;48752;51.056;17.056;2023-05-31T08:07:35;5.15;;;1.67;;
62687;SDS011;48752;51.056;17.056;2023-05-31T08:10:01;3.28;;;1.65;;
62687;SDS011;48752;51.056;17.056;2023-05-31T08:12:26;2.00;;;1.48;;
62687;SDS011;48752;51.056;17.056;2023-05-31T08:14:52;6.10;;;1.70;;
62687;SDS011;48752;51.056;17.056;2023-05-31T08:17:18;3.00;;;1.35;;
62687;SDS011;48752;51.056;17.056;2023-05-31T08:19:44;5.13;;;1.70;;
62687;SDS011;48752;51.056;17.056;2023-05-31T08:22:11;2.33;;;1.75;;
62687;SDS011;48752;51.056;17.056;2023-05-31T08:24:37;3.55;;;1.52;;
62687;SDS011;48752;51.056;17.056;2023-05-31T08:27:05;1.80;;;0.85;;
62687;SDS011;48752;51.056;17.056;2023-05-31T08:29:32;4.30;;;1.58;;
62687;SDS011;48752;51.056;17.056;2023-05-31T08:31:58;7.93;;;2.38;;
62687;SDS011;48752;51.056;17.056;2023-05-31T08:34:24;6.65;;;1.80;;
62687;SDS011;48752;51.056;17.056;2023-05-31T08:36:53;7.10;;;2.00;;
62687;SDS011;48752;51.056;17.056;2023-05-31T08:39:26;4.53;;;1.77;;
62687;SDS011;48752;51.056;17.056;2023-05-31T08:41:55;7.93;;;2.00;;
62687;SDS011;48752;51.056;17.056;2023-05-31T08:44:23;5.05;;;1.42;;
62687;SDS011;48752;51.056;17.056;2023-05-31T08:46:49;2.90;;;1.75;;
62687;SDS011;48752;51.056;17.056;2023-05-31T08:49:15;2.33;;;1.30;;
62687;SDS011;48752;51.056;17.056;2023-05-31T08:51:44;3.97;;;1.60;;
62687;SDS011;48752;51.056;17.056;2023-05-31T08:54:10;2.55;;;1.20;;
62687;SDS011;48752;51.056;17.056;2023-05-31T08:56:37;5.63;;;1.77;;
62687;SDS011;48752;51.056;17.056;2023-05-31T08:59:07;4.47;;;1.48;;
62687;SDS011;48752;51.056;17.056;2023-05-31T09:01:33;4.32;;;1.52;;
62687;SDS011;48752;51.056;17.056;2023-05-31T09:04:01;4.28;;;1.58;;
62687;SDS011;48752;51.056;17.056;2023-05-31T09:06:35;5.20;;;1.55;;
62687;SDS011;48752;51.056;17.056;2023-05-31T09:09:00;12.13;;;2.10;;
62687;SDS011;48752;51.056;17.056;2023-05-31T09:11:27;6.47;;;1.58;;
62687;SDS011;48752;51.056;17.056;2023-05-31T09:14:03;3.75;;;1.38;;
62687;SDS011;48752;51.056;17.056;2023-05-31T09:16:29;1.65;;;1.33;;
62687;SDS011;48752;51.056;17.056;2023-05-31T09:19:01;3.58;;;1.52;;
62687;SDS011;48752;51.056;17.056;2023-05-31T09:21:28;3.75;;;1.52;;
62687;SDS011;48752;51.056;17.056;2023-05-31T09:23:57;2.72;;;1.40;;
62687;SDS011;48752;51.056;17.056;2023-05-31T09:26:24;3.58;;;1.40;;
62687;SDS011;48752;51.056;17.056;2023-05-31T09:28:51;4.40;;;1.70;;
62687;SDS011;48752;51.056;17.056;2023-05-31T09:31:18;3.17;;;1.48;;
62687;SDS011;48752;51.056;17.056;2023-05-31T09:33:52;6.10;;;1.50;;
62687;SDS011;48752;51.056;17.056;2023-05-31T09:36:29;4.13;;;1.58;;
62687;SDS011;48752;51.056;17.056;2023-05-31T09:38:58;7.38;;;1.85;;
62687;SDS011;48752;51.056;17.056;2023-05-31T09:43:52;6.18;;;1.83;;
62687;SDS011;48752;51.056;17.056;2023-05-31T09:46:19;2.70;;;1.70;;
62687;SDS011;48752;51.056;17.056;2023-05-31T09:48:45;5.35;;;1.83;;
62687;SDS011;48752;51.056;17.056;2023-05-31T09:51:11;7.25;;;1.85;;
62687;SDS011;48752;51.056;17.056;2023-05-31T09:53:43;6.47;;;2.33;;
62687;SDS011;48752;51.056;17.056;2023-05-31T09:56:19;5.10;;;1.77;;
62687;SDS011;48752;51.056;17.056;2023-05-31T09:58:50;6.13;;;1.70;;
62687;SDS011;48752;51.056;17.056;2023-05-31T10:01:18;6.78;;;1.92;;
62687;SDS011;48752;51.056;17.056;2023-05-31T10:03:44;2.55;;;1.58;;
62687;SDS011;48752;51.056;17.056;2023-05-31T10:06:10;5.15;;;1.58;;
62687;SDS011;48752;51.056;17.056;2023-05-31T10:08:38;5.68;;;1.88;;
62687;SDS011;48752;51.056;17.056;2023-05-31T10:11:05;4.05;;;1.63;;
62687;SDS011;48752;51.056;17.056;2023-05-31T10:13:41;4.90;;;1.88;;
62687;SDS011;48752;51.056;17.056;2023-05-31T10:16:15;4.78;;;1.70;;
62687;SDS011;48752;51.056;17.056;2023-05-31T10:18:45;6.38;;;2.08;;
62687;SDS011;48752;51.056;17.056;2023-05-31T10:26:20;7.00;;;1.60;;
62687;SDS011;48752;51.056;17.056;2023-05-31T10:29:02;9.35;;;1.85;;
62687;SDS011;48752;51.056;17.056;2023-05-31T10:31:31;10.25;;;2.17;;
62687;SDS011;48752;51.056;17.056;2023-05-31T10:34:18;3.53;;;1.60;;
62687;SDS011;48752;51.056;17.056;2023-05-31T10:36:44;6.45;;;1.88;;
62687;SDS011;48752;51.056;17.056;2023-05-31T10:39:14;6.88;;;1.70;;
62687;SDS011;48752;51.056;17.056;2023-05-31T10:41:42;3.65;;;1.90;;
62687;SDS011;48752;51.056;17.056;2023-05-31T10:44:14;4.28;;;1.75;;
62687;SDS011;48752;51.056;17.056;2023-05-31T10:46:50;3.42;;;2.00;;
62687;SDS011;48752;51.056;17.056;2023-05-31T10:49:17;4.97;;;2.00;;
62687;SDS011;48752;51.056;17.056;2023-05-31T10:51:45;6.57;;;1.92;;
62687;SDS011;48752;51.056;17.056;2023-05-31T10:54:21;3.72;;;1.70;;
62687;SDS011;48752;51.056;17.056;2023-05-31T10:56:53;6.57;;;1.88;;
62687;SDS011;48752;51.056;17.056;2023-05-31T10:59:19;6.03;;;1.73;;
62687;SDS011;48752;51.056;17.056;2023-05-31T11:01:46;12.27;;;1.77;;
62687;SDS011;48752;51.056;17.056;2023-05-31T11:04:19;3.60;;;2.20;;
62687;SDS011;48752;51.056;17.056;2023-05-31T11:06:45;3.92;;;1.63;;
62687;SDS011;48752;51.056;17.056;2023-05-31T11:09:13;6.03;;;1.65;;
62687;SDS011;48752;51.056;17.056;2023-05-31T11:11:43;3.78;;;1.73;;
62687;SDS011;48752;51.056;17.056;2023-05-31T11:21:55;4.75;;;1.70;;
62687;SDS011;48752;51.056;17.056;2023-05-31T11:26:51;4.38;;;1.50;;
62687;SDS011;48752;51.056;17.056;2023-05-31T11:29:17;8.43;;;2.08;;
62687;SDS011;48752;51.056;17.056;2023-05-31T11:34:29;4.30;;;1.63;;
62687;SDS011;48752;51.056;17.056;2023-05-31T11:37:02;6.22;;;1.77;;
62687;SDS011;48752;51.056;17.056;2023-05-31T11:39:27;3.08;;;1.75;;
62687;SDS011;48752;51.056;17.056;2023-05-31T11:41:54;5.13;;;1.65;;
62687;SDS011;48752;51.056;17.056;2023-05-31T11:44:20;4.63;;;1.88;;
62687;SDS011;48752;51.056;17.056;2023-05-31T11:46:47;5.63;;;1.50;;
62687;SDS011;48752;51.056;17.056;2023-05-31T11:49:21;8.10;;;1.80;;
62687;SDS011;48752;51.056;17.056;2023-05-31T11:51:47;3.83;;;1.92;;
62687;SDS011;48752;51.056;17.056;2023-05-31T11:56:45;3.60;;;1.52;;
62687;SDS011;48752;51.056;17.056;2023-05-31T11:59:12;6.18;;;1.80;;
62687;SDS011;48752;51.056;17.056;2023-05-31T12:01:39;6.40;;;2.75;;
62687;SDS011;48752;51.056;17.056;2023-05-31T12:04:05;6.53;;;3.13;;
62687;SDS011;48752;51.056;17.056;2023-05-31T12:06:30;6.82;;;1.73;;
62687;SDS011;48752;51.056;17.056;2023-05-31T12:08:57;5.50;;;1.80;;
62687;SDS011;48752;51.056;17.056;2023-05-31T12:11:23;3.33;;;1.75;;
62687;SDS011;48752;51.056;17.056;2023-05-31T12:13:49;4.97;;;1.65;;
62687;SDS011;48752;51.056;17.056;2023-05-31T12:16:17;4.00;;;2.00;;
62687;SDS011;48752;51.056;17.056;2023-05-31T12:18:43;2.72;;;1.50;;
62687;SDS011;48752;51.056;17.056;2023-05-31T12:21:13;4.88;;;1.90;;
62687;SDS011;48752;51.056;17.056;2023-05-31T12:23:56;5.68;;;1.67;;
62687;SDS011;48752;51.056;17.056;2023-05-31T12:26:23;4.45;;;1.70;;
62687;SDS011;48752;51.056;17.056;2023-05-31T12:28:53;3.50;;;1.98;;
62687;SDS011;48752;51.056;17.056;2023-05-31T12:31:23;3.67;;;1.45;;
62687;SDS011;48752;51.056;17.056;2023-05-31T12:34:05;7.05;;;1.75;;
62687;SDS011;48752;51.056;17.056;2023-05-31T12:39:07;6.20;;;2.80;;
62687;SDS011;48752;51.056;17.056;2023-05-31T12:44:01;6.97;;;1.83;;
62687;SDS011;48752;51.056;17.056;2023-05-31T12:46:38;5.15;;;1.98;;
62687;SDS011;48752;51.056;17.056;2023-05-31T12:51:43;3.58;;;1.80;;
62687;SDS011;48752;51.056;17.056;2023-05-31T12:54:16;5.68;;;2.05;;
62687;SDS011;48752;51.056;17.056;2023-05-31T12:56:42;7.97;;;1.83;;
62687;SDS011;48752;51.056;17.056;2023-05-31T12:59:13;3.93;;;1.83;;
62687;SDS011;48752;51.056;17.056;2023-05-31T13:01:51;4.93;;;2.00;;
62687;SDS011;48752;51.056;17.056;2023-05-31T13:04:17;4.05;;;1.85;;
62687;SDS011;48752;51.056;17.056;2023-05-31T13:06:51;5.65;;;2.10;;
62687;SDS011;48752;51.056;17.056;2023-05-31T13:09:30;3.72;;;1.88;;
62687;SDS011;48752;51.056;17.056;2023-05-31T13:11:58;2.13;;;1.83;;
62687;SDS011;48752;51.056;17.056;2023-05-31T13:14:25;3.95;;;1.50;;
62687;SDS011;48752;51.056;17.056;2023-05-31T13:16:53;4.63;;;2.17;;
62687;SDS011;48752;51.056;17.056;2023-05-31T13:19:19;3.35;;;1.33;;
62687;SDS011;48752;51.056;17.056;2023-05-31T13:21:47;3.25;;;1.58;;
62687;SDS011;48752;51.056;17.056;2023-05-31T13:24:17;5.22;;;1.83;;
62687;SDS011;48752;51.056;17.056;2023-05-31T13:26:44;4.25;;;1.85;;
62687;SDS011;48752;51.056;17.056;2023-05-31T13:29:10;4.32;;;1.40;;
62687;SDS011;48752;51.056;17.056;2023-05-31T13:31:36;3.17;;;2.00;;
62687;SDS011;48752;51.056;17.056;2023-05-31T13:34:01;3.88;;;1.67;;
62687;SDS011;48752;51.056;17.056;2023-05-31T13:36:27;4.82;;;2.00;;
62687;SDS011;48752;51.056;17.056;2023-05-31T13:38:52;3.90;;;1.63;;
62687;SDS011;48752;51.056;17.056;2023-05-31T13:41:19;3.42;;;1.60;;
62687;SDS011;48752;51.056;17.056;2023-05-31T13:43:48;4.63;;;2.13;;
62687;SDS011;48752;51.056;17.056;2023-05-31T13:46:13;3.33;;;1.40;;
62687;SDS011;48752;51.056;17.056;2023-05-31T13:48:40;3.55;;;2.10;;
62687;SDS011;48752;51.056;17.056;2023-05-31T13:51:06;5.43;;;1.63;;
62687;SDS011;48752;51.056;17.056;2023-05-31T13:53:32;4.22;;;1.85;;
62687;SDS011;48752;51.056;17.056;2023-05-31T13:55:58;3.13;;;1.67;;
62687;SDS011;48752;51.056;17.056;2023-05-31T13:58:24;22.90;;;3.65;;
62687;SDS011;48752;51.056;17.056;2023-05-31T14:00:50;3.55;;;1.58;;
62687;SDS011;48752;51.056;17.056;2023-05-31T14:03:17;6.72;;;1.90;;
62687;SDS011;48752;51.056;17.056;2023-05-31T14:05:56;2.60;;;1.50;;
62687;SDS011;48752;51.056;17.056;2023-05-31T14:08:22;2.58;;;1.80;;
62687;SDS011;48752;51.056;17.056;2023-05-31T14:10:49;8.02;;;1.80;;
62687;SDS011;48752;51.056;17.056;2023-05-31T14:13:17;6.53;;;1.80;;
62687;SDS011;48752;51.056;17.056;2023-05-31T14:18:16;4.10;;;1.92;;
62687;SDS011;48752;51.056;17.056;2023-05-31T14:21:00;6.10;;;1.70;;
62687;SDS011;48752;51.056;17.056;2023-05-31T14:23:29;2.90;;;1.42;;
62687;SDS011;48752;51.056;17.056;2023-05-31T14:25:57;4.13;;;1.55;;
62687;SDS011;48752;51.056;17.056;2023-05-31T14:28:26;3.95;;;1.63;;
62687;SDS011;48752;51.056;17.056;2023-05-31T14:30:57;6.38;;;1.60;;
62687;SDS011;48752;51.056;17.056;2023-05-31T14:33:24;6.35;;;1.92;;
62687;SDS011;48752;51.056;17.056;2023-05-31T14:35:57;3.70;;;1.67;;
62687;SDS011;48752;51.056;17.056;2023-05-31T14:38:23;2.63;;;1.40;;
62687;SDS011;48752;51.056;17.056;2023-05-31T14:40:50;5.20;;;1.35;;
62687;SDS011;48752;51.056;17.056;2023-05-31T14:43:22;3.28;;;1.35;;
62687;SDS011;48752;51.056;17.056;2023-05-31T14:45:47;3.42;;;1.38;;
62687;SDS011;48752;51.056;17.056;2023-05-31T14:48:13;1.90;;;1.50;;
62687;SDS011;48752;51.056;17.056;2023-05-31T14:50:49;4.82;;;1.77;;
62687;SDS011;48752;51.056;17.056;2023-05-31T14:53:18;2.63;;;1.38;;
62687;SDS011;48752;51.056;17.056;2023-05-31T14:55:46;5.45;;;1.55;;
62687;SDS011;48752;51.056;17.056;2023-05-31T14:58:12;9.70;;;1.55;;
62687;SDS011;48752;51.056;17.056;2023-05-31T15:00:39;2.15;;;1.42;;
62687;SDS011;48752;51.056;17.056;2023-05-31T15:03:05;4.43;;;1.95;;
62687;SDS011;48752;51.056;17.056;2023-05-31T15:05:33;6.43;;;2.03;;
62687;SDS011;48752;51.056;17.056;2023-05-31T15:07:58;6.43;;;1.75;;
62687;SDS011;48752;51.056;17.056;2023-05-31T15:10:24;3.13;;;1.73;;
62687;SDS011;48752;51.056;17.056;2023-05-31T15:12:51;3.88;;;1.58;;
62687;SDS011;48752;51.056;17.056;2023-05-31T15:15:16;5.18;;;1.50;;
62687;SDS011;48752;51.056;17.056;2023-05-31T15:17:43;2.90;;;1.60;;
62687;SDS011;48752;51.056;17.056;2023-05-31T15:20:08;1.67;;;1.47;;
62687;SDS011;48752;51.056;17.056;2023-05-31T15:22:34;7.30;;;1.70;;
62687;SDS011;48752;51.056;17.056;2023-05-31T15:25:02;7.65;;;2.13;;
62687;SDS011;48752;51.056;17.056;2023-05-31T15:27:27;4.68;;;1.75;;
62687;SDS011;48752;51.056;17.056;2023-05-31T15:29:55;2.38;;;1.58;;